Time;durP1;ratioP1;P1;durP2;ratioP2;P2;SDS_P1;SDS_P2;PMS_P1;PMS_P2;Temp;Humidity;BMP_temperature;BMP_pressure;BME280_temperature;BME280_humidity;BME280_pressure;Samples;Min_cycle;Max_cycle;Signal;HPM_P1;HPM_P2
2021/11/07 00:01:57;;;;;;;;;39.00;35.00;;;;;10.08;62.39;102239.75;4954414;28;45626;-74
2021/11/07 00:07:24;;;;;;;;;41.50;34.25;;;;;10.15;61.89;102231.59;4931438;28;45457;-73
2021/11/07 00:10:01;;;;;;;;;39.25;36.25;;;;;10.17;62.12;102237.59;4950852;28;45524;-71
2021/11/07 00:12:30;;;;;;;;;35.75;31.25;;;;;10.17;62.35;102232.34;4970067;28;51130;-73
2021/11/07 00:14:56;;;;;;;;;32.75;29.00;;;;;10.16;62.26;102223.63;4932855;28;45546;-74
2021/11/07 00:17:26;;;;;;;;;38.75;35.00;;;;;10.19;62.54;102226.09;4926399;28;45964;-76
2021/11/07 00:19:57;;;;;;;;;32.25;28.75;;;;;10.23;62.38;102216.28;4951558;28;45359;-73
2021/11/07 00:22:44;;;;;;;;;35.00;30.75;;;;;10.28;62.22;102219.53;4944666;28;45458;-74
2021/11/07 00:25:23;;;;;;;;;38.50;29.25;;;;;10.32;62.10;102204.50;4939310;28;45622;-74
2021/11/07 00:27:55;;;;;;;;;37.00;32.75;;;;;10.36;62.54;102198.19;4958422;28;46090;-76
2021/11/07 00:33:13;;;;;;;;;38.00;30.50;;;;;10.46;62.30;102191.53;4932424;28;45472;-74
2021/11/07 00:38:15;;;;;;;;;36.75;33.50;;;;;10.45;62.37;102196.88;4917984;28;45363;-73
2021/11/07 00:40:59;;;;;;;;;36.50;30.50;;;;;10.49;62.38;102206.31;4922929;28;45525;-75
2021/11/07 00:44:10;;;;;;;;;25.75;20.00;;;;;10.45;62.33;102202.97;4957739;28;45336;-74
2021/11/07 00:48:46;;;;;;;;;26.75;23.75;;;;;10.42;61.99;102211.03;4989232;28;45565;-75
2021/11/07 00:51:33;;;;;;;;;28.00;26.00;;;;;10.44;62.31;102210.94;5015965;28;46310;-76
2021/11/07 00:56:34;;;;;;;;;33.50;29.75;;;;;10.57;61.56;102198.88;4956910;28;45709;-76
2021/11/07 01:01:38;;;;;;;;;32.25;26.75;;;;;10.62;61.46;102206.53;5022196;28;45566;-74
2021/11/07 01:04:05;;;;;;;;;42.75;31.75;;;;;10.62;61.99;102191.59;4975102;28;45384;-74
2021/11/07 01:06:32;;;;;;;;;40.00;31.00;;;;;10.63;62.13;102193.31;4964091;28;45425;-77
2021/11/07 01:08:58;;;;;;;;;38.00;32.75;;;;;10.65;62.13;102196.72;4972581;28;47064;-75
2021/11/07 01:11:24;;;;;;;;;32.25;30.25;;;;;10.67;61.75;102186.97;4957139;28;45516;-73
2021/11/07 01:13:49;;;;;;;;;30.75;29.50;;;;;10.68;61.96;102167.66;4973254;28;45441;-75
2021/11/07 01:16:16;;;;;;;;;34.50;28.25;;;;;10.66;61.86;102156.34;5008525;28;45375;-76
2021/11/07 01:18:41;;;;;;;;;29.00;25.00;;;;;10.69;61.39;102150.97;4989103;28;47374;-70
2021/11/07 01:21:11;;;;;;;;;33.00;27.75;;;;;10.70;61.43;102150.03;4958463;28;45475;-72
2021/11/07 01:23:41;;;;;;;;;33.00;28.25;;;;;10.72;61.30;102149.94;4977832;28;45580;-75
2021/11/07 01:26:23;;;;;;;;;31.00;29.00;;;;;10.72;61.58;102142.91;5038722;28;45519;-75
2021/11/07 01:28:53;;;;;;;;;33.25;25.50;;;;;10.75;61.80;102138.44;4965402;28;46347;-75
2021/11/07 01:31:19;;;;;;;;;33.25;28.25;;;;;10.75;61.62;102130.53;5008873;28;45424;-76
2021/11/07 01:33:45;;;;;;;;;27.50;24.50;;;;;10.73;61.55;102130.63;4991727;28;45543;-73
2021/11/07 01:38:49;;;;;;;;;30.00;26.25;;;;;10.71;61.57;102122.78;5034273;28;45665;-75
2021/11/07 01:43:40;;;;;;;;;37.75;26.25;;;;;10.57;61.45;102118.28;4966251;28;46368;-70
2021/11/07 01:51:22;;;;;;;;;24.25;22.75;;;;;10.02;62.46;102097.44;4977905;28;45505;-71
2021/11/07 01:53:49;;;;;;;;;28.25;22.75;;;;;9.99;62.52;102114.19;5032672;28;45371;-71
2021/11/07 01:56:15;;;;;;;;;24.00;21.00;;;;;9.89;62.56;102103.28;4965595;28;45436;-71
2021/11/07 01:58:44;;;;;;;;;22.00;22.00;;;;;9.83;63.28;102100.09;4969980;28;47427;-70
2021/11/07 02:01:09;;;;;;;;;21.00;21.00;;;;;9.72;63.59;102101.47;4974066;28;45549;-71
2021/11/07 02:03:37;;;;;;;;;27.00;23.75;;;;;9.66;63.61;102104.38;4967556;28;45357;-71
2021/11/07 02:06:04;;;;;;;;;30.00;23.50;;;;;9.59;63.63;102100.38;4962013;28;45527;-69
2021/11/07 02:08:30;;;;;;;;;29.75;24.25;;;;;9.54;64.15;102102.38;4960463;28;47064;-70
2021/11/07 02:10:57;;;;;;;;;24.75;20.00;;;;;9.50;64.29;102104.28;4974202;28;45347;-71
2021/11/07 02:13:24;;;;;;;;;26.00;23.25;;;;;9.51;64.58;102103.38;4969697;28;45284;-71
2021/11/07 02:15:50;;;;;;;;;27.75;25.25;;;;;9.53;64.84;102101.50;4984869;28;45539;-72
2021/11/07 02:18:17;;;;;;;;;25.25;20.25;;;;;9.58;64.64;102096.06;4969143;28;46155;-70
2021/11/07 02:20:43;;;;;;;;;23.75;18.75;;;;;9.79;64.95;102085.44;4969406;28;45463;-72
2021/11/07 02:23:12;;;;;;;;;20.33;15.67;;;;;9.90;65.39;102077.91;4956408;28;45434;-71
2021/11/07 02:25:39;;;;;;;;;19.33;15.00;;;;;10.08;65.56;102076.97;4971890;28;45641;-70
2021/11/07 02:28:06;;;;;;;;;21.25;20.00;;;;;10.20;64.32;102080.72;4968508;28;45506;-70
2021/11/07 02:30:34;;;;;;;;;24.50;20.50;;;;;10.19;64.31;102078.19;4974938;28;45519;-71
2021/11/07 02:33:00;;;;;;;;;23.00;20.00;;;;;10.17;64.04;102065.16;4972374;28;45530;-70
2021/11/07 02:35:27;;;;;;;;;22.00;19.00;;;;;10.18;64.68;102071.25;4968835;28;45396;-69
2021/11/07 02:37:56;;;;;;;;;23.67;19.00;;;;;10.18;64.57;102071.25;4957492;28;46075;-70
2021/11/07 02:40:21;;;;;;;;;18.00;17.00;;;;;10.15;64.97;102055.66;4969107;28;45528;-71
2021/11/07 02:42:48;;;;;;;;;27.67;18.00;;;;;10.24;64.66;102060.44;4970273;28;45503;-71
2021/11/07 02:45:16;;;;;;;;;19.67;18.00;;;;;10.21;64.32;102052.69;4969616;28;45876;-73
2021/11/07 02:47:44;;;;;;;;;19.33;16.33;;;;;10.16;64.36;102052.06;4969232;28;46462;-72
2021/11/07 02:50:10;;;;;;;;;23.33;19.00;;;;;10.11;64.76;102051.50;4955334;28;45431;-70
2021/11/07 02:52:35;;;;;;;;;19.00;16.67;;;;;10.08;65.35;102050.69;4962198;28;45609;-75
2021/11/07 02:55:03;;;;;;;;;22.33;19.00;;;;;10.12;65.62;102051.41;4962014;28;45822;-74
2021/11/07 02:57:28;;;;;;;;;18.33;16.33;;;;;10.17;65.76;102049.41;4966298;28;46685;-72
2021/11/07 03:00:03;;;;;;;;;19.00;18.00;;;;;10.22;66.48;102041.25;4966649;28;45493;-75
2021/11/07 03:02:30;;;;;;;;;21.67;15.33;;;;;10.26;66.22;102032.28;4967614;28;45366;-73
2021/11/07 03:04:56;;;;;;;;;5.67;4.67;;;;;10.26;66.50;102032.28;4959335;28;45574;-74
2021/11/07 03:07:22;;;;;;;;;16.00;14.33;;;;;10.30;66.71;102039.09;4968363;28;46689;-72
2021/11/07 03:09:49;;;;;;;;;18.33;14.33;;;;;10.34;66.63;102040.63;4967485;28;45347;-71
2021/11/07 03:12:15;;;;;;;;;18.67;17.33;;;;;10.40;66.63;102032.47;4968566;28;45516;-72
2021/11/07 03:14:45;;;;;;;;;14.00;11.33;;;;;10.44;66.78;102034.94;5056809;28;45393;-72
2021/11/07 03:17:12;;;;;;;;;19.00;18.00;;;;;10.48;66.80;102025.94;4965876;28;47408;-70
2021/11/07 03:19:38;;;;;;;;;11.00;11.00;;;;;10.54;67.33;102025.63;4968823;28;45458;-73
2021/11/07 03:22:08;;;;;;;;;20.33;17.00;;;;;10.66;66.99;102024.97;4964999;28;45390;-71
2021/11/07 03:24:34;;;;;;;;;16.67;12.33;;;;;10.72;66.84;102015.91;4965176;28;45369;-70
2021/11/07 03:27:04;;;;;;;;;18.00;16.33;;;;;10.76;66.56;102020.06;4968779;28;47123;-70
2021/11/07 03:29:33;;;;;;;;;18.33;14.33;;;;;10.77;66.77;102015.66;5037908;28;45371;-72
2021/11/07 03:32:14;;;;;;;;;20.33;15.33;;;;;10.77;67.06;102020.91;5032742;28;45356;-70
2021/11/07 03:34:53;;;;;;;;;14.33;11.00;;;;;10.78;67.76;102022.59;4960271;28;45644;-71
2021/11/07 03:37:23;;;;;;;;;19.67;13.33;;;;;10.79;67.65;102024.31;4962428;28;47183;-72
2021/11/07 03:39:51;;;;;;;;;17.33;12.00;;;;;10.75;67.83;102017.53;4994400;28;45452;-72
2021/11/07 03:42:17;;;;;;;;;12.67;11.67;;;;;10.75;68.17;102023.63;5015402;28;45433;-71
2021/11/07 03:44:43;;;;;;;;;17.67;11.67;;;;;10.77;68.13;102020.91;4967047;28;45438;-75
2021/11/07 03:47:09;;;;;;;;;14.33;12.00;;;;;10.77;68.19;102026.16;5045479;28;47483;-75
2021/11/07 03:49:37;;;;;;;;;17.33;12.33;;;;;10.75;68.73;102025.41;4975625;28;45601;-74
2021/11/07 03:52:03;;;;;;;;;18.00;13.67;;;;;10.72;68.55;102018.53;4974219;28;45491;-74
2021/11/07 03:54:30;;;;;;;;;15.33;13.33;;;;;10.65;68.49;102018.03;4969838;28;45603;-74
2021/11/07 03:56:58;;;;;;;;;12.67;12.67;;;;;10.63;68.54;102008.53;4964738;28;46269;-73
2021/11/07 03:59:24;;;;;;;;;15.33;12.00;;;;;10.62;69.17;102012.91;4962061;28;45419;-74
2021/11/07 04:01:50;;;;;;;;;13.67;13.00;;;;;10.63;69.30;102012.00;4974889;28;45499;-74
2021/11/07 04:04:16;;;;;;;;;18.33;14.00;;;;;10.67;69.10;102016.16;4979235;28;45436;-76
2021/11/07 04:06:41;;;;;;;;;14.00;11.00;;;;;10.65;68.46;102001.38;4972100;28;46052;-75
2021/11/07 04:09:10;;;;;;;;;12.00;11.00;;;;;10.72;69.22;102003.59;4973065;28;45317;-74
2021/11/07 04:11:37;;;;;;;;;19.33;14.00;;;;;10.73;69.32;102000.06;4973706;28;45391;-74
2021/11/07 04:14:05;;;;;;;;;17.00;14.00;;;;;10.77;68.67;102006.00;5013788;28;45659;-76
2021/11/07 04:16:31;;;;;;;;;23.00;13.00;;;;;10.78;69.09;101998.94;4962234;28;46166;-75
2021/11/07 04:18:57;;;;;;;;;19.67;17.67;;;;;10.84;68.70;102003.88;4994309;28;45293;-76
2021/11/07 04:21:23;;;;;;;;;11.00;10.00;;;;;10.86;68.72;101991.50;5009175;28;45380;-76
2021/11/07 04:23:48;;;;;;;;;14.67;13.00;;;;;10.96;68.90;101994.47;4958677;28;45665;-76
2021/11/07 04:26:13;;;;;;;;;19.67;15.33;;;;;10.97;68.32;101997.00;5038019;28;45473;-76
2021/11/07 04:28:39;;;;;;;;;17.67;14.67;;;;;10.95;68.83;101990.13;4962065;28;45411;-75
2021/11/07 04:31:05;;;;;;;;;16.67;13.00;;;;;10.97;69.08;101996.16;4999671;28;45515;-74
2021/11/07 04:33:31;;;;;;;;;18.00;15.00;;;;;10.96;68.87;101997.09;5003088;28;45877;-76
2021/11/07 04:35:56;;;;;;;;;13.67;11.33;;;;;10.93;68.85;101992.84;4971309;28;46268;-75
2021/11/07 04:38:22;;;;;;;;;15.67;13.33;;;;;10.91;68.54;101986.84;4965517;28;45875;-75
2021/11/07 04:40:47;;;;;;;;;10.33;9.00;;;;;10.90;68.51;101985.13;4974587;28;45309;-75
2021/11/07 04:43:13;;;;;;;;;14.00;13.00;;;;;10.89;68.76;101978.19;4981354;28;45492;-75
2021/11/07 04:45:39;;;;;;;;;20.33;16.67;;;;;10.93;69.14;101984.97;4972031;28;46251;-74
2021/11/07 04:48:05;;;;;;;;;12.00;12.00;;;;;10.92;68.63;101983.25;4999324;28;45501;-74
2021/11/07 04:50:36;;;;;;;;;18.33;16.33;;;;;10.95;68.75;101977.84;5015313;28;45375;-75
2021/11/07 04:53:04;;;;;;;;;16.00;12.67;;;;;10.98;69.05;101976.81;4970576;28;45437;-74
2021/11/07 04:55:30;;;;;;;;;14.67;13.00;;;;;11.00;68.49;101964.41;4965251;28;46022;-76
2021/11/07 04:57:55;;;;;;;;;20.00;13.33;;;;;11.00;68.73;101956.53;4996946;28;45474;-75
2021/11/07 05:00:22;;;;;;;;;16.33;16.33;;;;;10.98;68.52;101943.47;5020431;28;45291;-76
2021/11/07 05:02:49;;;;;;;;;19.33;18.67;;;;;10.97;68.80;101939.16;5028934;28;51134;-75
2021/11/07 05:05:16;;;;;;;;;24.00;19.33;;;;;10.99;69.20;101939.06;4971640;28;45545;-76
2021/11/07 05:07:41;;;;;;;;;20.67;20.00;;;;;11.06;68.50;101941.25;4960546;28;45381;-74
2021/11/07 05:10:08;;;;;;;;;25.33;20.33;;;;;11.03;68.54;101941.44;5000104;28;45436;-76
2021/11/07 05:12:33;;;;;;;;;21.33;18.00;;;;;11.04;68.38;101945.78;5000859;28;45446;-74
2021/11/07 05:14:59;;;;;;;;;17.67;15.67;;;;;11.03;68.85;101938.81;4958090;28;47129;-75
2021/11/07 05:17:25;;;;;;;;;24.67;20.00;;;;;11.03;68.67;101928.28;5038877;28;45225;-76
2021/11/07 05:19:51;;;;;;;;;20.67;19.67;;;;;10.97;69.00;101920.75;5030096;27;45224;-75
2021/11/07 05:22:17;;;;;;;;;16.67;14.67;;;;;10.97;68.76;101925.16;5020827;28;45424;-75
2021/11/07 05:24:42;;;;;;;;;18.00;16.33;;;;;10.96;68.79;101915.59;5009174;28;46864;-75
2021/11/07 05:27:07;;;;;;;;;18.00;13.00;;;;;10.96;68.56;101919.09;4964348;28;45523;-74
2021/11/07 05:29:33;;;;;;;;;18.00;18.00;;;;;10.93;69.07;101916.59;5039712;28;45282;-78
2021/11/07 05:32:00;;;;;;;;;18.67;14.67;;;;;10.95;68.78;101919.13;4962617;28;45557;-74
2021/11/07 05:34:26;;;;;;;;;21.67;19.67;;;;;10.93;69.04;101927.13;5018426;28;46306;-75
2021/11/07 05:36:52;;;;;;;;;18.67;17.00;;;;;10.90;69.23;101932.56;5000579;28;45552;-75
2021/11/07 05:39:18;;;;;;;;;16.67;15.33;;;;;10.89;68.92;101930.88;4973726;28;45365;-75
2021/11/07 05:41:43;;;;;;;;;19.00;14.67;;;;;10.89;69.41;101930.88;4969671;28;45531;-75
2021/11/07 05:44:09;;;;;;;;;21.33;19.33;;;;;10.90;69.21;101927.31;4957926;28;46225;-75
2021/11/07 05:46:35;;;;;;;;;14.67;13.00;;;;;10.89;69.09;101909.84;5019350;28;45400;-76
2021/11/07 05:49:00;;;;;;;;;16.67;13.00;;;;;10.90;69.47;101917.63;4981580;28;45408;-75
2021/11/07 05:51:27;;;;;;;;;19.00;16.00;;;;;10.92;69.43;101907.03;4961579;28;45448;-74
2021/11/07 05:53:53;;;;;;;;;23.33;17.00;;;;;10.93;69.15;101910.50;4959041;28;45705;-75
2021/11/07 05:56:18;;;;;;;;;15.00;14.33;;;;;10.94;68.89;101918.31;5038285;28;45372;-74
2021/11/07 05:58:44;;;;;;;;;14.33;14.33;;;;;10.88;68.99;101903.75;4973945;28;45551;-75
2021/11/07 06:01:09;;;;;;;;;13.67;12.67;;;;;10.93;69.07;101911.34;4982915;28;45436;-75
2021/11/07 06:03:35;;;;;;;;;13.33;12.00;;;;;10.95;69.83;101911.25;4965158;28;45917;-74
2021/11/07 06:06:01;;;;;;;;;18.00;15.33;;;;;11.00;69.82;101923.22;4961257;28;45383;-75
2021/11/07 06:08:27;;;;;;;;;15.67;14.33;;;;;11.03;69.79;101916.94;4957571;28;45513;-75
2021/11/07 06:10:53;;;;;;;;;16.67;16.67;;;;;11.07;69.45;101921.91;5030952;28;45264;-74
2021/11/07 06:13:18;;;;;;;;;17.67;13.00;;;;;11.12;69.59;101920.81;4970072;28;45450;-75
2021/11/07 06:15:43;;;;;;;;;14.00;13.67;;;;;11.11;68.91;101913.88;4967191;28;45302;-75
2021/11/07 06:18:09;;;;;;;;;13.00;12.00;;;;;11.07;69.02;101914.03;4962462;28;45464;-75
2021/11/07 06:20:34;;;;;;;;;13.00;13.00;;;;;11.07;69.37;101918.47;4958058;28;45359;-74
2021/11/07 06:23:01;;;;;;;;;16.00;11.67;;;;;11.05;69.44;101923.81;4984591;28;46080;-74
2021/11/07 06:25:27;;;;;;;;;16.33;12.67;;;;;11.05;69.26;101934.31;4962152;28;45366;-75
2021/11/07 06:27:53;;;;;;;;;16.67;13.00;;;;;11.01;68.99;101924.88;4963076;28;45271;-75
2021/11/07 06:30:19;;;;;;;;;22.00;16.33;;;;;11.01;70.01;101919.63;4970732;28;45774;-74
2021/11/07 06:32:45;;;;;;;;;21.00;13.50;;;;;11.02;69.71;101929.22;4958277;28;46207;-76
2021/11/07 06:35:12;;;;;;;;;12.00;12.00;;;;;11.04;69.94;101927.38;4956733;28;45309;-74
2021/11/07 06:37:39;;;;;;;;;15.33;13.00;;;;;11.03;69.79;101927.47;4971381;28;46064;-75
2021/11/07 06:40:06;;;;;;;;;14.67;11.33;;;;;10.99;69.74;101925.91;4965880;28;45352;-74
2021/11/07 06:42:32;;;;;;;;;15.67;14.00;;;;;10.97;70.00;101922.53;4966083;28;46225;-75
2021/11/07 06:44:57;;;;;;;;;16.67;12.00;;;;;10.91;70.30;101918.50;4982725;28;45650;-73
2021/11/07 06:47:23;;;;;;;;;18.67;16.33;;;;;10.95;69.75;101914.75;4978315;28;45411;-75
2021/11/07 06:49:49;;;;;;;;;17.00;14.00;;;;;10.98;70.11;101911.94;5013553;28;45621;-74
2021/11/07 06:52:15;;;;;;;;;17.33;15.00;;;;;11.01;69.75;101909.13;4964231;28;45833;-75
2021/11/07 06:54:41;;;;;;;;;12.67;12.67;;;;;11.06;69.72;101906.25;4963130;28;45384;-74
2021/11/07 06:57:06;;;;;;;;;17.00;12.67;;;;;11.08;69.66;101893.84;4969132;28;45577;-73
2021/11/07 06:59:33;;;;;;;;;12.00;12.00;;;;;11.06;69.52;101896.56;4956432;28;45480;-75
2021/11/07 07:01:58;;;;;;;;;13.33;10.33;;;;;11.04;70.05;101893.19;4958225;28;46317;-75
2021/11/07 07:04:24;;;;;;;;;15.00;14.00;;;;;11.02;70.15;101900.31;5010635;28;45421;-75
2021/11/07 07:06:50;;;;;;;;;15.33;11.00;;;;;10.98;69.94;101890.91;4988692;28;45245;-74
2021/11/07 07:09:22;;;;;;;;;17.67;13.67;;;;;11.03;70.53;101891.47;4968992;28;45608;-75
2021/11/07 07:11:51;;;;;;;;;15.67;15.33;;;;;11.01;70.43;101898.59;4956551;28;46161;-75
2021/11/07 07:14:24;;;;;;;;;17.00;14.00;;;;;11.01;70.09;101888.09;5010288;28;45668;-74
2021/11/07 07:30:26;;;;;;;;;16.00;13.67;;;;;10.98;71.56;101897.94;4974608;28;45485;-75
2021/11/07 07:35:36;;;;;;;;;17.67;16.67;;;;;10.94;72.82;101905.16;4938342;28;45446;-74
2021/11/07 07:38:01;;;;;;;;;13.67;12.00;;;;;10.90;72.94;101896.59;4951159;28;45583;-74
2021/11/07 07:40:26;;;;;;;;;20.00;17.67;;;;;10.92;72.68;101899.13;4996717;28;45685;-75
2021/11/07 07:42:52;;;;;;;;;18.33;16.33;;;;;10.95;72.10;101904.22;4998741;28;45570;-74
2021/11/07 07:45:25;;;;;;;;;14.00;13.00;;;;;10.93;72.38;101911.34;5000092;28;45333;-75
2021/11/07 07:47:51;;;;;;;;;19.00;14.00;;;;;10.93;72.86;101916.59;5007630;28;45341;-75
2021/11/07 07:50:19;;;;;;;;;19.00;15.33;;;;;10.99;72.64;101912.75;4990413;28;45282;-76
2021/11/07 07:52:45;;;;;;;;;20.67;17.33;;;;;11.01;72.63;101919.63;5007694;28;46556;-74
2021/11/07 07:55:11;;;;;;;;;19.00;16.67;;;;;11.01;73.08;101919.63;4998425;28;45401;-74
2021/11/07 07:57:38;;;;;;;;;17.67;17.00;;;;;11.03;73.03;101916.94;4997346;28;45525;-75
2021/11/07 08:00:08;;;;;;;;;19.33;17.00;;;;;11.02;72.48;101910.81;5005213;28;45569;-75
2021/11/07 08:02:33;;;;;;;;;9.33;8.67;;;;;11.05;72.35;101899.28;4956093;28;46332;-75
2021/11/07 08:05:01;;;;;;;;;19.67;13.33;;;;;11.07;72.17;101898.25;4967868;28;46366;-75
2021/11/07 08:07:27;;;;;;;;;15.33;14.00;;;;;11.13;72.30;101901.47;5011500;28;45392;-76
2021/11/07 08:09:54;;;;;;;;;17.67;14.00;;;;;11.19;72.05;101901.13;4986283;28;45535;-75
2021/11/07 08:12:19;;;;;;;;;18.67;14.67;;;;;11.21;71.70;101892.19;4960256;28;46299;-75
2021/11/07 08:14:46;;;;;;;;;18.67;14.67;;;;;11.26;72.38;101891.09;4955748;28;45295;-76
2021/11/07 08:17:11;;;;;;;;;21.33;18.67;;;;;11.30;72.46;101890.81;5035393;28;45214;-74
2021/11/07 08:19:37;;;;;;;;;17.00;16.33;;;;;11.35;71.99;101894.03;5018812;28;45376;-74
2021/11/07 08:22:02;;;;;;;;;18.00;15.00;;;;;11.39;71.89;101903.44;5013202;28;46224;-74
2021/11/07 08:24:28;;;;;;;;;20.00;16.67;;;;;11.42;71.44;101902.41;5016638;28;45815;-75
2021/11/07 08:26:53;;;;;;;;;16.33;14.00;;;;;11.41;71.74;101905.97;4970037;28;46220;-75
2021/11/07 08:29:19;;;;;;;;;19.00;14.33;;;;;11.42;71.86;101912.94;4971399;28;45545;-74
2021/11/07 08:31:49;;;;;;;;;17.00;14.67;;;;;11.39;72.11;101907.81;4969875;28;45790;-73
2021/11/07 08:34:15;;;;;;;;;22.00;18.00;;;;;11.36;71.55;101902.75;4963650;28;45423;-76
2021/11/07 08:39:17;;;;;;;;;13.67;13.00;;;;;11.35;72.16;101886.13;5018545;28;45276;-76
2021/11/07 08:41:56;;;;;;;;;16.00;11.00;;;;;11.39;71.83;101885.00;4955456;28;47042;-76
2021/11/07 09:01:26;;;;;;;;;16.00;11.00;;;;;11.72;71.33;101870.75;5056490;28;45384;-76
2021/11/07 09:04:03;;;;;;;;;15.00;13.33;;;;;11.75;71.62;101866.25;5055862;28;46211;-75
2021/11/07 09:09:10;;;;;;;;;16.67;14.00;;;;;11.76;71.40;101858.25;5054287;28;45375;-75
2021/11/07 09:11:35;;;;;;;;;20.00;14.67;;;;;11.79;71.38;101857.22;5039252;28;45308;-75
2021/11/07 09:14:02;;;;;;;;;14.00;14.00;;;;;11.84;71.79;101860.44;5054813;28;47234;-75
2021/11/07 09:16:28;;;;;;;;;15.67;14.33;;;;;11.79;71.85;101862.50;5054317;28;45381;-76
2021/11/07 09:18:57;;;;;;;;;17.67;15.67;;;;;11.73;73.27;101864.56;5056242;28;45948;-75
2021/11/07 09:21:26;;;;;;;;;21.67;13.00;;;;;11.64;72.67;101862.50;5003173;28;45541;-74
2021/11/07 09:23:56;;;;;;;;;20.33;15.00;;;;;11.60;73.03;101879.41;5026975;28;46421;-75
2021/11/07 09:26:39;;;;;;;;;18.33;17.33;;;;;11.57;73.48;101882.22;5038426;28;45392;-75
2021/11/07 09:29:11;;;;;;;;;19.33;14.00;;;;;11.53;73.22;101878.94;4970995;28;45551;-75
2021/11/07 09:31:43;;;;;;;;;41.00;33.50;;;;;11.55;73.24;101866.53;4961854;28;45229;-75
2021/11/07 09:34:17;;;;;;;;;17.00;14.33;;;;;11.56;73.05;101875.28;4961917;28;47231;-76
2021/11/07 09:36:56;;;;;;;;;64.25;51.00;;;;;11.54;73.52;101885.88;4962790;28;45388;-76
2021/11/07 09:39:49;;;;;;;;;60.50;46.75;;;;;11.56;73.04;101872.66;4968245;28;45640;-75
2021/11/07 09:44:58;;;;;;;;;20.33;14.00;;;;;11.62;73.11;101866.16;4959121;28;45372;-75
2021/11/07 09:47:27;;;;;;;;;13.33;12.33;;;;;11.64;72.72;101875.66;4957504;28;45352;-73
2021/11/07 09:49:53;;;;;;;;;13.67;13.67;;;;;11.68;73.17;101877.16;5028231;28;45421;-76
2021/11/07 09:52:27;;;;;;;;;17.00;12.67;;;;;11.73;73.61;101869.00;4987622;28;45262;-76
2021/11/07 09:55:01;;;;;;;;;16.67;15.33;;;;;11.78;73.29;101866.06;4970642;28;47219;-76
2021/11/07 09:57:30;;;;;;;;;15.00;15.00;;;;;11.79;73.38;101876.50;4978650;28;45610;-75
2021/11/07 10:00:00;;;;;;;;;11.00;11.00;;;;;11.83;73.19;101885.06;5023559;28;45431;-74
2021/11/07 10:02:28;;;;;;;;;13.67;11.33;;;;;11.86;73.22;101882.25;4974839;28;45507;-75
2021/11/07 10:04:54;;;;;;;;;10.33;10.33;;;;;11.89;72.99;101879.41;5048633;28;47496;-75
2021/11/07 10:07:26;;;;;;;;;12.67;11.33;;;;;11.96;73.28;101890.44;5031452;28;45475;-76
2021/11/07 10:09:56;;;;;;;;;13.33;13.00;;;;;12.07;73.65;101892.44;5028629;28;45430;-75
2021/11/07 10:12:36;;;;;;;;;12.00;11.67;;;;;12.20;72.78;101893.34;5018037;28;45335;-76
2021/11/07 10:15:06;;;;;;;;;20.33;16.33;;;;;12.37;73.07;101900.19;4990405;28;46151;-74
2021/11/07 10:17:49;;;;;;;;;18.00;13.00;;;;;12.53;72.71;101894.78;5047769;28;47611;-76
2021/11/07 10:20:48;;;;;;;;;11.67;11.67;;;;;12.64;72.62;101900.22;4986290;28;45275;-75
2021/11/07 10:23:52;;;;;;;;;14.33;9.33;;;;;12.76;72.05;101889.84;4965365;28;45559;-75
2021/11/07 10:26:24;;;;;;;;;16.00;11.00;;;;;12.79;71.67;101885.22;4958124;28;45989;-75
2021/11/07 10:28:55;;;;;;;;;10.67;8.67;;;;;12.80;71.58;101881.63;4973951;28;45528;-76
2021/11/07 10:31:33;;;;;;;;;13.33;11.00;;;;;12.83;71.79;101885.84;4975493;28;45537;-76
2021/11/07 10:34:24;;;;;;;;;10.67;10.00;;;;;12.86;71.63;101869.84;5001826;28;44811;-75
2021/11/07 10:42:52;;;;;;;;;12.00;11.00;;;;;13.19;71.62;101879.09;4967826;28;45330;-74
2021/11/07 10:45:25;;;;;;;;;11.33;11.33;;;;;13.27;71.50;101883.84;5010356;28;45432;-75
2021/11/07 10:53:17;;;;;;;;;12.33;9.33;;;;;13.59;70.83;101897.53;4957245;28;45351;-75
2021/11/07 10:55:49;;;;;;;;;14.67;10.33;;;;;13.65;70.77;101907.69;5022591;28;45312;-75
2021/11/07 10:58:15;;;;;;;;;13.33;11.33;;;;;13.67;70.48;101882.03;4972817;28;45439;-76
2021/11/07 11:00:45;;;;;;;;;11.67;11.00;;;;;13.68;70.29;101881.03;4961422;28;45440;-76
2021/11/07 11:03:16;;;;;;;;;13.33;11.67;;;;;13.73;70.39;101885.19;4961003;28;45289;-76
2021/11/07 11:05:50;;;;;;;;;16.67;14.00;;;;;13.74;70.02;101892.13;4962737;28;45352;-75
2021/11/07 11:08:36;;;;;;;;;12.00;12.00;;;;;13.76;70.14;101884.97;4956836;28;46533;-76
2021/11/07 11:11:10;;;;;;;;;10.00;7.00;;;;;13.78;69.66;101876.00;4973646;28;45292;-75
2021/11/07 11:24:12;;;;;;;;;11.33;7.67;;;;;13.93;68.27;101860.00;4959834;28;45463;-75
2021/11/07 11:26:52;;;;;;;;;5.33;3.00;;;;;13.94;68.06;101862.53;4968884;28;45334;-75
2021/11/07 11:34:51;;;;;;;;;4.00;4.00;;;;;13.95;67.74;101848.38;4973737;28;45323;-76
2021/11/07 11:38:04;;;;;;;;;8.00;5.00;;;;;13.94;67.82;101851.97;5008401;28;45429;-75
2021/11/07 11:42:44;;;;;;;;;10.33;9.00;;;;;13.98;66.55;101839.41;4980612;28;45579;-74
2021/11/07 11:45:11;;;;;;;;;4.67;3.33;;;;;14.00;66.34;101846.28;4957027;28;45537;-76
2021/11/07 11:47:46;;;;;;;;;8.00;3.00;;;;;14.00;66.59;101840.16;5037348;28;45514;-75
2021/11/07 11:53:50;;;;;;;;;5.33;3.00;;;;;14.00;66.19;101830.41;5019891;28;45446;-75
2021/11/07 11:55:42;;;;;;;;;3.67;3.67;;;;;13.99;65.72;101831.38;4985927;28;45462;-75
2021/11/07 12:03:42;;;;;;;;;6.00;3.67;;;;;14.05;65.22;101837.16;4972051;28;45407;-77
2021/11/07 12:07:07;;;;;;;;;5.00;4.33;;;;;14.08;64.79;101842.25;4971435;28;45419;-76
2021/11/07 12:09:28;;;;;;;;;3.67;3.00;;;;;14.09;64.51;101847.41;4978937;28;45508;-76
2021/11/07 12:12:05;;;;;;;;;6.00;4.67;;;;;14.16;63.86;101837.25;4971796;28;46899;-76
2021/11/07 12:14:51;;;;;;;;;5.00;3.67;;;;;14.20;64.22;101836.06;4957622;28;45478;-75
2021/11/07 12:17:29;;;;;;;;;8.00;4.00;;;;;14.24;63.64;101829.59;4969408;28;45376;-75
2021/11/07 12:19:56;;;;;;;;;5.00;5.00;;;;;14.34;63.76;101837.72;4974693;28;45327;-77
2021/11/07 12:22:33;;;;;;;;;6.00;4.00;;;;;14.43;63.57;101825.63;4974414;28;46449;-77
2021/11/07 12:25:07;;;;;;;;;6.67;4.67;;;;;14.53;63.51;101824.00;4973943;28;45369;-75
2021/11/07 12:27:49;;;;;;;;;4.00;3.67;;;;;14.63;62.59;101825.00;4982904;28;45474;-75
2021/11/07 12:30:23;;;;;;;;;3.67;3.00;;;;;14.64;61.34;101818.78;5017750;28;45503;-75
2021/11/07 12:32:59;;;;;;;;;6.00;4.00;;;;;14.61;61.39;101824.28;4958561;28;47031;-75
2021/11/07 12:35:41;;;;;;;;;7.33;5.00;;;;;14.61;61.20;101828.72;5039633;28;45187;-76
2021/11/07 12:41:12;;;;;;;;;6.67;4.00;;;;;14.54;60.94;101823.03;4974559;28;45291;-76
2021/11/07 12:43:41;;;;;;;;;4.67;3.67;;;;;14.52;60.75;101825.78;5020605;28;45423;-76
2021/11/07 12:49:16;;;;;;;;;7.00;3.33;;;;;14.43;60.23;101830.94;4963206;28;45440;-76
2021/11/07 12:51:54;;;;;;;;;6.67;4.33;;;;;14.39;59.79;101826.78;4981607;28;50370;-75
2021/11/07 12:54:22;;;;;;;;;6.00;2.67;;;;;14.32;59.65;101816.69;5012828;28;47057;-74
2021/11/07 12:57:00;;;;;;;;;4.00;3.00;;;;;14.33;60.40;101815.72;4960641;28;45522;-76
2021/11/07 12:59:49;;;;;;;;;5.67;4.33;;;;;14.36;59.76;101807.56;5040360;28;45578;-77
2021/11/07 13:02:17;;;;;;;;;5.00;4.00;;;;;14.45;59.51;101813.13;4971930;28;45475;-77
2021/11/07 13:04:55;;;;;;;;;7.00;4.33;;;;;14.51;59.50;101824.09;5023746;28;46125;-78
2021/11/07 13:07:28;;;;;;;;;6.33;3.00;;;;;14.53;58.65;101816.91;5015260;28;45590;-76
2021/11/07 13:10:01;;;;;;;;;7.00;4.00;;;;;14.57;58.91;101824.59;5016161;28;45325;-76
2021/11/07 13:12:34;;;;;;;;;5.67;4.00;;;;;14.61;58.17;101837.50;5015965;28;45372;-77
2021/11/07 13:18:17;;;;;;;;;3.00;3.00;;;;;14.62;57.84;101820.69;4958606;28;45474;-76